sensor_id;sensor_type;location;lat;lon;timestamp;temperature;humidity
423;DHT22;198;48.752;9.180;2024-01-06T00:00:34;7.00;99.90
423;DHT22;198;48.752;9.180;2024-01-06T00:03:00;7.00;99.90
423;DHT22;198;48.752;9.180;2024-01-06T00:05:25;7.00;99.90
423;DHT22;198;48.752;9.180;2024-01-06T00:07:51;6.90;99.90
423;DHT22;198;48.752;9.180;2024-01-06T00:10:17;6.90;99.90
423;DHT22;198;48.752;9.180;2024-01-06T00:12:42;6.90;99.90
423;DHT22;198;48.752;9.180;2024-01-06T00:15:08;6.90;99.90
423;DHT22;198;48.752;9.180;2024-01-06T00:17:34;6.90;99.90
423;DHT22;198;48.752;9.180;2024-01-06T00:19:59;6.90;99.90
423;DHT22;198;48.752;9.180;2024-01-06T00:22:25;6.90;99.90
423;DHT22;198;48.752;9.180;2024-01-06T00:24:51;6.90;99.90
423;DHT22;198;48.752;9.180;2024-01-06T00:27:17;6.90;99.90
423;DHT22;198;48.752;9.180;2024-01-06T00:29:42;6.90;99.90
423;DHT22;198;48.752;9.180;2024-01-06T00:32:08;6.90;99.90
423;DHT22;198;48.752;9.180;2024-01-06T00:34:33;6.80;99.90
423;DHT22;198;48.752;9.180;2024-01-06T00:36:59;6.80;99.90
423;DHT22;198;48.752;9.180;2024-01-06T00:39:24;6.70;99.90
423;DHT22;198;48.752;9.180;2024-01-06T00:41:50;6.70;99.90
423;DHT22;198;48.752;9.180;2024-01-06T00:44:15;6.70;99.90
423;DHT22;198;48.752;9.180;2024-01-06T00:46:41;6.80;99.90
423;DHT22;198;48.752;9.180;2024-01-06T00:49:06;6.80;99.90
423;DHT22;198;48.752;9.180;2024-01-06T00:51:32;6.80;99.90
423;DHT22;198;48.752;9.180;2024-01-06T00:53:57;6.80;99.90
423;DHT22;198;48.752;9.180;2024-01-06T00:56:23;6.80;99.90
423;DHT22;198;48.752;9.180;2024-01-06T00:58:49;6.80;99.90
423;DHT22;198;48.752;9.180;2024-01-06T01:01:14;6.80;99.90
423;DHT22;198;48.752;9.180;2024-01-06T01:03:39;6.80;99.90
423;DHT22;198;48.752;9.180;2024-01-06T01:06:05;6.80;99.90
423;DHT22;198;48.752;9.180;2024-01-06T01:08:30;6.80;99.90
423;DHT22;198;48.752;9.180;2024-01-06T01:10:57;6.80;99.90
423;DHT22;198;48.752;9.180;2024-01-06T01:13:23;6.70;99.90
423;DHT22;198;48.752;9.180;2024-01-06T01:15:48;6.70;99.90
423;DHT22;198;48.752;9.180;2024-01-06T01:18:14;6.70;99.90
423;DHT22;198;48.752;9.180;2024-01-06T01:20:40;6.70;99.90
423;DHT22;198;48.752;9.180;2024-01-06T01:23:07;6.70;99.90
423;DHT22;198;48.752;9.180;2024-01-06T01:25:33;6.60;99.90
423;DHT22;198;48.752;9.180;2024-01-06T01:27:58;6.60;99.90
423;DHT22;198;48.752;9.180;2024-01-06T01:30:24;6.60;99.90
423;DHT22;198;48.752;9.180;2024-01-06T01:32:49;6.60;99.90
423;DHT22;198;48.752;9.180;2024-01-06T01:35:15;6.60;99.90
423;DHT22;198;48.752;9.180;2024-01-06T01:37:40;6.60;99.90
423;DHT22;198;48.752;9.180;2024-01-06T01:40:06;6.60;99.90
423;DHT22;198;48.752;9.180;2024-01-06T01:42:33;6.60;99.90
423;DHT22;198;48.752;9.180;2024-01-06T01:44:58;6.60;99.90
423;DHT22;198;48.752;9.180;2024-01-06T01:47:24;6.60;99.90
423;DHT22;198;48.752;9.180;2024-01-06T01:49:49;6.60;99.90
423;DHT22;198;48.752;9.180;2024-01-06T01:52:16;6.60;99.90
423;DHT22;198;48.752;9.180;2024-01-06T01:54:42;6.60;99.90
423;DHT22;198;48.752;9.180;2024-01-06T01:57:09;6.50;99.90
423;DHT22;198;48.752;9.180;2024-01-06T01:59:36;6.60;99.90
423;DHT22;198;48.752;9.180;2024-01-06T02:02:02;6.60;99.90
423;DHT22;198;48.752;9.180;2024-01-06T02:04:27;6.60;99.90
423;DHT22;198;48.752;9.180;2024-01-06T02:06:53;6.60;99.90
423;DHT22;198;48.752;9.180;2024-01-06T02:09:19;6.60;99.90
423;DHT22;198;48.752;9.180;2024-01-06T02:11:44;6.60;99.90
423;DHT22;198;48.752;9.180;2024-01-06T02:14:10;6.60;99.90
423;DHT22;198;48.752;9.180;2024-01-06T02:16:35;6.60;99.90
423;DHT22;198;48.752;9.180;2024-01-06T02:19:01;6.50;99.90
423;DHT22;198;48.752;9.180;2024-01-06T02:21:28;6.50;99.90
423;DHT22;198;48.752;9.180;2024-01-06T02:23:54;6.50;99.90
423;DHT22;198;48.752;9.180;2024-01-06T02:26:19;6.50;99.90
423;DHT22;198;48.752;9.180;2024-01-06T02:28:45;6.50;99.90
423;DHT22;198;48.752;9.180;2024-01-06T02:31:13;6.50;99.90
423;DHT22;198;48.752;9.180;2024-01-06T02:33:39;6.50;99.90
423;DHT22;198;48.752;9.180;2024-01-06T02:36:04;6.50;99.90
423;DHT22;198;48.752;9.180;2024-01-06T02:38:30;6.40;99.90
423;DHT22;198;48.752;9.180;2024-01-06T02:40:55;6.40;99.90
423;DHT22;198;48.752;9.180;2024-01-06T02:43:21;6.50;99.90
423;DHT22;198;48.752;9.180;2024-01-06T02:45:48;6.50;99.90
423;DHT22;198;48.752;9.180;2024-01-06T02:48:13;6.40;99.90
423;DHT22;198;48.752;9.180;2024-01-06T02:50:39;6.50;99.90
423;DHT22;198;48.752;9.180;2024-01-06T02:53:04;6.50;99.90
423;DHT22;198;48.752;9.180;2024-01-06T02:55:30;6.50;99.90
423;DHT22;198;48.752;9.180;2024-01-06T02:57:55;6.50;99.90
423;DHT22;198;48.752;9.180;2024-01-06T03:00:21;6.50;99.90
423;DHT22;198;48.752;9.180;2024-01-06T03:02:46;6.50;99.90
423;DHT22;198;48.752;9.180;2024-01-06T03:05:12;6.40;99.90
423;DHT22;198;48.752;9.180;2024-01-06T03:07:37;6.40;99.90
423;DHT22;198;48.752;9.180;2024-01-06T03:10:03;6.40;99.90
423;DHT22;198;48.752;9.180;2024-01-06T03:12:29;6.40;99.90
423;DHT22;198;48.752;9.180;2024-01-06T03:14:54;6.30;99.90
423;DHT22;198;48.752;9.180;2024-01-06T03:17:19;6.30;99.90
423;DHT22;198;48.752;9.180;2024-01-06T03:19:45;6.20;99.90
423;DHT22;198;48.752;9.180;2024-01-06T03:22:11;6.20;99.90
423;DHT22;198;48.752;9.180;2024-01-06T03:24:36;6.20;99.90
423;DHT22;198;48.752;9.180;2024-01-06T03:27:02;6.20;99.90
423;DHT22;198;48.752;9.180;2024-01-06T03:29:27;6.20;99.90
423;DHT22;198;48.752;9.180;2024-01-06T03:31:53;6.20;99.90
423;DHT22;198;48.752;9.180;2024-01-06T03:34:18;6.10;99.90
423;DHT22;198;48.752;9.180;2024-01-06T03:36:44;6.10;99.90
423;DHT22;198;48.752;9.180;2024-01-06T03:39:10;6.10;99.90
423;DHT22;198;48.752;9.180;2024-01-06T03:41:35;6.10;99.90
423;DHT22;198;48.752;9.180;2024-01-06T03:44:01;6.10;99.90
423;DHT22;198;48.752;9.180;2024-01-06T03:46:27;6.10;99.90
423;DHT22;198;48.752;9.180;2024-01-06T03:48:52;6.20;99.90
423;DHT22;198;48.752;9.180;2024-01-06T03:51:18;6.20;99.90
423;DHT22;198;48.752;9.180;2024-01-06T03:53:43;6.20;99.90
423;DHT22;198;48.752;9.180;2024-01-06T03:56:09;6.20;99.90
423;DHT22;198;48.752;9.180;2024-01-06T03:58:34;6.20;99.90
423;DHT22;198;48.752;9.180;2024-01-06T04:01:00;6.20;99.90
423;DHT22;198;48.752;9.180;2024-01-06T04:03:26;6.20;99.90
423;DHT22;198;48.752;9.180;2024-01-06T04:05:51;6.20;99.90
423;DHT22;198;48.752;9.180;2024-01-06T04:08:18;6.20;99.90
423;DHT22;198;48.752;9.180;2024-01-06T04:10:43;6.20;99.90
423;DHT22;198;48.752;9.180;2024-01-06T04:13:10;6.20;99.90
423;DHT22;198;48.752;9.180;2024-01-06T04:15:36;6.20;99.90
423;DHT22;198;48.752;9.180;2024-01-06T04:18:02;6.20;99.90
423;DHT22;198;48.752;9.180;2024-01-06T04:20:32;6.20;99.90
423;DHT22;198;48.752;9.180;2024-01-06T04:22:57;6.20;99.90
423;DHT22;198;48.752;9.180;2024-01-06T04:25:23;6.20;99.90
423;DHT22;198;48.752;9.180;2024-01-06T04:27:49;6.20;99.90
423;DHT22;198;48.752;9.180;2024-01-06T04:30:15;6.20;99.90
423;DHT22;198;48.752;9.180;2024-01-06T04:32:41;6.20;99.90
423;DHT22;198;48.752;9.180;2024-01-06T04:35:07;6.10;99.90
423;DHT22;198;48.752;9.180;2024-01-06T04:37:33;6.20;99.90
423;DHT22;198;48.752;9.180;2024-01-06T04:39:58;6.20;99.90
423;DHT22;198;48.752;9.180;2024-01-06T04:42:24;6.20;99.90
423;DHT22;198;48.752;9.180;2024-01-06T04:44:50;6.30;99.90
423;DHT22;198;48.752;9.180;2024-01-06T04:47:15;6.20;99.90
423;DHT22;198;48.752;9.180;2024-01-06T04:49:41;6.30;99.90
423;DHT22;198;48.752;9.180;2024-01-06T04:52:07;6.30;99.90
423;DHT22;198;48.752;9.180;2024-01-06T04:54:32;6.20;99.90
423;DHT22;198;48.752;9.180;2024-01-06T04:56:58;6.20;99.90
423;DHT22;198;48.752;9.180;2024-01-06T04:59:24;6.20;99.90
423;DHT22;198;48.752;9.180;2024-01-06T05:01:50;6.20;99.90
423;DHT22;198;48.752;9.180;2024-01-06T05:04:17;6.20;99.90
423;DHT22;198;48.752;9.180;2024-01-06T05:06:42;6.10;99.90
423;DHT22;198;48.752;9.180;2024-01-06T05:09:08;6.10;99.90
423;DHT22;198;48.752;9.180;2024-01-06T05:11:33;6.10;99.90
423;DHT22;198;48.752;9.180;2024-01-06T05:13:59;6.10;99.90
423;DHT22;198;48.752;9.180;2024-01-06T05:16:24;6.10;99.90
423;DHT22;198;48.752;9.180;2024-01-06T05:18:50;6.00;99.90
423;DHT22;198;48.752;9.180;2024-01-06T05:21:16;6.00;99.90
423;DHT22;198;48.752;9.180;2024-01-06T05:23:41;6.10;99.90
423;DHT22;198;48.752;9.180;2024-01-06T05:26:07;6.00;99.90
423;DHT22;198;48.752;9.180;2024-01-06T05:28:32;6.00;99.90
423;DHT22;198;48.752;9.180;2024-01-06T05:30:58;6.00;99.90
423;DHT22;198;48.752;9.180;2024-01-06T05:33:23;6.10;99.90
423;DHT22;198;48.752;9.180;2024-01-06T05:35:49;6.10;99.90
423;DHT22;198;48.752;9.180;2024-01-06T05:38:14;6.10;99.90
423;DHT22;198;48.752;9.180;2024-01-06T05:40:40;6.10;99.90
423;DHT22;198;48.752;9.180;2024-01-06T05:43:06;6.10;99.90
423;DHT22;198;48.752;9.180;2024-01-06T05:45:31;6.20;99.90
423;DHT22;198;48.752;9.180;2024-01-06T05:47:57;6.10;99.90
423;DHT22;198;48.752;9.180;2024-01-06T05:50:22;6.20;99.90
423;DHT22;198;48.752;9.180;2024-01-06T05:52:48;6.20;99.90
423;DHT22;198;48.752;9.180;2024-01-06T05:55:14;6.30;99.90
423;DHT22;198;48.752;9.180;2024-01-06T05:57:39;6.30;99.90
423;DHT22;198;48.752;9.180;2024-01-06T06:00:08;6.40;99.90
423;DHT22;198;48.752;9.180;2024-01-06T06:02:34;6.40;99.90
423;DHT22;198;48.752;9.180;2024-01-06T06:05:00;6.40;99.90
423;DHT22;198;48.752;9.180;2024-01-06T06:07:25;6.40;99.90
423;DHT22;198;48.752;9.180;2024-01-06T06:09:51;6.50;99.90
423;DHT22;198;48.752;9.180;2024-01-06T06:12:18;6.50;99.90
423;DHT22;198;48.752;9.180;2024-01-06T06:14:43;6.50;99.90
423;DHT22;198;48.752;9.180;2024-01-06T06:17:09;6.50;99.90
423;DHT22;198;48.752;9.180;2024-01-06T06:19:34;6.50;99.90
423;DHT22;198;48.752;9.180;2024-01-06T06:22:00;6.50;99.90
423;DHT22;198;48.752;9.180;2024-01-06T06:24:25;6.50;99.90
423;DHT22;198;48.752;9.180;2024-01-06T06:26:51;6.50;99.90
423;DHT22;198;48.752;9.180;2024-01-06T06:29:16;6.50;99.90
423;DHT22;198;48.752;9.180;2024-01-06T06:31:42;6.50;99.90
423;DHT22;198;48.752;9.180;2024-01-06T06:34:12;6.50;99.90
423;DHT22;198;48.752;9.180;2024-01-06T06:36:37;6.50;99.90
423;DHT22;198;48.752;9.180;2024-01-06T06:39:03;6.60;99.90
423;DHT22;198;48.752;9.180;2024-01-06T06:41:29;6.60;99.90
423;DHT22;198;48.752;9.180;2024-01-06T06:43:58;6.70;99.90
423;DHT22;198;48.752;9.180;2024-01-06T06:46:25;6.70;99.90
423;DHT22;198;48.752;9.180;2024-01-06T06:48:50;6.70;99.90
423;DHT22;198;48.752;9.180;2024-01-06T06:51:16;6.70;99.90
423;DHT22;198;48.752;9.180;2024-01-06T06:53:41;6.80;99.90
423;DHT22;198;48.752;9.180;2024-01-06T06:56:07;6.80;99.90
423;DHT22;198;48.752;9.180;2024-01-06T06:58:33;6.70;99.90
423;DHT22;198;48.752;9.180;2024-01-06T07:00:58;6.70;99.90
423;DHT22;198;48.752;9.180;2024-01-06T07:03:24;6.70;99.90
423;DHT22;198;48.752;9.180;2024-01-06T07:05:49;6.70;99.90
423;DHT22;198;48.752;9.180;2024-01-06T07:08:15;6.80;99.90
423;DHT22;198;48.752;9.180;2024-01-06T07:10:41;6.80;99.90
423;DHT22;198;48.752;9.180;2024-01-06T07:13:06;6.90;99.90
423;DHT22;198;48.752;9.180;2024-01-06T07:15:32;6.90;99.90
423;DHT22;198;48.752;9.180;2024-01-06T07:17:57;6.80;99.90
423;DHT22;198;48.752;9.180;2024-01-06T07:20:23;6.80;99.90
423;DHT22;198;48.752;9.180;2024-01-06T07:22:48;6.80;99.90
423;DHT22;198;48.752;9.180;2024-01-06T07:25:14;6.80;99.90
423;DHT22;198;48.752;9.180;2024-01-06T07:27:39;6.70;99.90
423;DHT22;198;48.752;9.180;2024-01-06T07:30:05;6.70;99.90
423;DHT22;198;48.752;9.180;2024-01-06T07:32:33;6.60;99.90
423;DHT22;198;48.752;9.180;2024-01-06T07:34:58;6.60;99.90
423;DHT22;198;48.752;9.180;2024-01-06T07:37:24;6.60;99.90
423;DHT22;198;48.752;9.180;2024-01-06T07:39:51;6.60;99.90
423;DHT22;198;48.752;9.180;2024-01-06T07:42:16;6.60;99.90
423;DHT22;198;48.752;9.180;2024-01-06T07:44:42;6.60;99.90
423;DHT22;198;48.752;9.180;2024-01-06T07:47:07;6.50;99.90
423;DHT22;198;48.752;9.180;2024-01-06T07:49:33;6.50;99.90
423;DHT22;198;48.752;9.180;2024-01-06T07:51:58;6.40;99.90
423;DHT22;198;48.752;9.180;2024-01-06T07:54:24;6.40;99.90
423;DHT22;198;48.752;9.180;2024-01-06T07:56:49;6.30;99.90
423;DHT22;198;48.752;9.180;2024-01-06T07:59:15;6.30;99.90
423;DHT22;198;48.752;9.180;2024-01-06T08:01:40;6.40;99.90
423;DHT22;198;48.752;9.180;2024-01-06T08:04:08;6.40;99.90
423;DHT22;198;48.752;9.180;2024-01-06T08:06:34;6.40;99.90
423;DHT22;198;48.752;9.180;2024-01-06T08:08:59;6.40;99.90
423;DHT22;198;48.752;9.180;2024-01-06T08:11:25;6.50;99.90
423;DHT22;198;48.752;9.180;2024-01-06T08:13:51;6.60;99.90
423;DHT22;198;48.752;9.180;2024-01-06T08:16:17;6.60;99.90
423;DHT22;198;48.752;9.180;2024-01-06T08:18:43;6.60;99.90
423;DHT22;198;48.752;9.180;2024-01-06T08:21:09;6.70;99.90
423;DHT22;198;48.752;9.180;2024-01-06T08:23:34;6.70;99.90
423;DHT22;198;48.752;9.180;2024-01-06T08:26:00;6.70;99.90
423;DHT22;198;48.752;9.180;2024-01-06T08:28:26;6.60;99.90
423;DHT22;198;48.752;9.180;2024-01-06T08:30:51;6.60;99.90
423;DHT22;198;48.752;9.180;2024-01-06T08:33:17;6.50;99.90
423;DHT22;198;48.752;9.180;2024-01-06T08:35:43;6.60;99.90
423;DHT22;198;48.752;9.180;2024-01-06T08:38:09;6.60;99.90
423;DHT22;198;48.752;9.180;2024-01-06T08:40:35;6.60;99.90
423;DHT22;198;48.752;9.180;2024-01-06T08:43:00;6.60;99.90
423;DHT22;198;48.752;9.180;2024-01-06T08:45:26;6.70;99.90
423;DHT22;198;48.752;9.180;2024-01-06T08:47:51;6.80;99.90
423;DHT22;198;48.752;9.180;2024-01-06T08:50:17;6.90;99.90
423;DHT22;198;48.752;9.180;2024-01-06T08:52:42;7.00;99.90
423;DHT22;198;48.752;9.180;2024-01-06T08:55:08;7.00;99.90
423;DHT22;198;48.752;9.180;2024-01-06T08:57:33;7.10;99.90
423;DHT22;198;48.752;9.180;2024-01-06T08:59:59;7.10;99.90
423;DHT22;198;48.752;9.180;2024-01-06T09:02:24;7.10;99.90
423;DHT22;198;48.752;9.180;2024-01-06T09:04:50;7.20;99.90
423;DHT22;198;48.752;9.180;2024-01-06T09:07:15;7.20;99.90
423;DHT22;198;48.752;9.180;2024-01-06T09:09:42;7.30;99.90
423;DHT22;198;48.752;9.180;2024-01-06T09:12:08;7.30;99.90
423;DHT22;198;48.752;9.180;2024-01-06T09:14:33;7.40;99.90
423;DHT22;198;48.752;9.180;2024-01-06T09:16:59;7.40;99.90
423;DHT22;198;48.752;9.180;2024-01-06T09:19:24;7.50;99.90
423;DHT22;198;48.752;9.180;2024-01-06T09:21:50;7.60;99.90
423;DHT22;198;48.752;9.180;2024-01-06T09:24:16;7.60;99.90
423;DHT22;198;48.752;9.180;2024-01-06T09:26:42;7.60;99.90
423;DHT22;198;48.752;9.180;2024-01-06T09:29:07;7.60;99.90
423;DHT22;198;48.752;9.180;2024-01-06T09:31:33;7.70;99.90
423;DHT22;198;48.752;9.180;2024-01-06T09:34:00;7.70;99.90
423;DHT22;198;48.752;9.180;2024-01-06T09:36:28;7.70;99.90
423;DHT22;198;48.752;9.180;2024-01-06T09:38:53;7.70;99.90
423;DHT22;198;48.752;9.180;2024-01-06T09:41:19;7.80;99.90
423;DHT22;198;48.752;9.180;2024-01-06T09:43:45;7.80;99.90
423;DHT22;198;48.752;9.180;2024-01-06T09:46:15;7.80;99.90
423;DHT22;198;48.752;9.180;2024-01-06T09:48:43;7.90;99.90
423;DHT22;198;48.752;9.180;2024-01-06T09:51:10;7.90;99.90
423;DHT22;198;48.752;9.180;2024-01-06T09:53:42;7.90;99.90
423;DHT22;198;48.752;9.180;2024-01-06T09:56:08;8.10;99.90
423;DHT22;198;48.752;9.180;2024-01-06T09:58:34;8.20;99.90
423;DHT22;198;48.752;9.180;2024-01-06T10:01:00;8.40;99.90
423;DHT22;198;48.752;9.180;2024-01-06T10:03:27;8.60;99.90
423;DHT22;198;48.752;9.180;2024-01-06T10:05:52;8.70;99.90
423;DHT22;198;48.752;9.180;2024-01-06T10:08:18;8.70;99.90
423;DHT22;198;48.752;9.180;2024-01-06T10:10:45;8.70;99.90
423;DHT22;198;48.752;9.180;2024-01-06T10:13:10;8.60;99.90
423;DHT22;198;48.752;9.180;2024-01-06T10:15:36;8.60;99.90
423;DHT22;198;48.752;9.180;2024-01-06T10:18:01;8.60;99.90
423;DHT22;198;48.752;9.180;2024-01-06T10:20:29;8.60;99.90
423;DHT22;198;48.752;9.180;2024-01-06T10:22:54;8.60;99.90
423;DHT22;198;48.752;9.180;2024-01-06T10:25:23;8.70;99.90
423;DHT22;198;48.752;9.180;2024-01-06T10:27:48;8.70;99.90
423;DHT22;198;48.752;9.180;2024-01-06T10:30:14;8.70;99.90
423;DHT22;198;48.752;9.180;2024-01-06T10:32:43;8.60;99.90
423;DHT22;198;48.752;9.180;2024-01-06T10:35:09;8.70;99.90
423;DHT22;198;48.752;9.180;2024-01-06T10:37:35;8.70;99.90
423;DHT22;198;48.752;9.180;2024-01-06T10:40:23;8.80;99.90
423;DHT22;198;48.752;9.180;2024-01-06T10:42:48;8.90;99.90
423;DHT22;198;48.752;9.180;2024-01-06T10:45:14;8.90;99.90
423;DHT22;198;48.752;9.180;2024-01-06T10:47:42;8.90;99.90
423;DHT22;198;48.752;9.180;2024-01-06T10:50:10;8.90;99.90
423;DHT22;198;48.752;9.180;2024-01-06T10:52:38;8.90;99.90
423;DHT22;198;48.752;9.180;2024-01-06T10:55:05;9.00;99.90
423;DHT22;198;48.752;9.180;2024-01-06T10:57:31;9.00;99.90
423;DHT22;198;48.752;9.180;2024-01-06T11:00:00;9.00;99.90
423;DHT22;198;48.752;9.180;2024-01-06T11:02:26;9.10;99.90
423;DHT22;198;48.752;9.180;2024-01-06T11:04:52;9.00;99.90
423;DHT22;198;48.752;9.180;2024-01-06T11:07:20;9.00;99.90
423;DHT22;198;48.752;9.180;2024-01-06T11:12:20;8.80;99.90
423;DHT22;198;48.752;9.180;2024-01-06T11:14:46;8.80;99.90
423;DHT22;198;48.752;9.180;2024-01-06T11:17:12;8.70;99.90
423;DHT22;198;48.752;9.180;2024-01-06T11:22:26;8.50;99.90
423;DHT22;198;48.752;9.180;2024-01-06T11:24:56;8.50;99.90
423;DHT22;198;48.752;9.180;2024-01-06T11:27:24;8.50;99.90
423;DHT22;198;48.752;9.180;2024-01-06T11:29:54;8.80;99.90
423;DHT22;198;48.752;9.180;2024-01-06T11:34:53;9.10;99.90
423;DHT22;198;48.752;9.180;2024-01-06T11:37:34;9.20;99.90
423;DHT22;198;48.752;9.180;2024-01-06T11:40:01;9.10;99.90
423;DHT22;198;48.752;9.180;2024-01-06T11:42:33;8.90;99.90
423;DHT22;198;48.752;9.180;2024-01-06T11:45:04;8.80;99.90
423;DHT22;198;48.752;9.180;2024-01-06T11:47:34;8.80;99.90
423;DHT22;198;48.752;9.180;2024-01-06T11:50:01;8.70;99.90
423;DHT22;198;48.752;9.180;2024-01-06T11:52:33;8.70;99.90
423;DHT22;198;48.752;9.180;2024-01-06T11:54:59;8.70;99.90
423;DHT22;198;48.752;9.180;2024-01-06T11:57:29;8.70;99.90
423;DHT22;198;48.752;9.180;2024-01-06T11:59:55;8.80;99.90
423;DHT22;198;48.752;9.180;2024-01-06T12:02:20;9.00;99.90
423;DHT22;198;48.752;9.180;2024-01-06T12:04:53;9.10;99.90
423;DHT22;198;48.752;9.180;2024-01-06T12:07:20;9.10;99.90
423;DHT22;198;48.752;9.180;2024-01-06T12:09:51;9.00;99.90
423;DHT22;198;48.752;9.180;2024-01-06T12:12:25;8.80;99.90
423;DHT22;198;48.752;9.180;2024-01-06T12:14:50;8.80;99.90
423;DHT22;198;48.752;9.180;2024-01-06T12:17:16;8.80;99.90
423;DHT22;198;48.752;9.180;2024-01-06T12:19:42;8.70;99.90
423;DHT22;198;48.752;9.180;2024-01-06T12:22:10;8.70;99.90
423;DHT22;198;48.752;9.180;2024-01-06T12:24:36;8.60;99.90
423;DHT22;198;48.752;9.180;2024-01-06T12:27:02;8.50;99.90
423;DHT22;198;48.752;9.180;2024-01-06T12:29:28;8.50;99.90
423;DHT22;198;48.752;9.180;2024-01-06T12:31:55;8.50;99.90
423;DHT22;198;48.752;9.180;2024-01-06T12:34:20;8.40;99.90
423;DHT22;198;48.752;9.180;2024-01-06T12:36:46;8.40;99.90
423;DHT22;198;48.752;9.180;2024-01-06T12:39:13;8.30;99.90
423;DHT22;198;48.752;9.180;2024-01-06T12:41:42;8.30;99.90
423;DHT22;198;48.752;9.180;2024-01-06T12:44:08;8.30;99.90
423;DHT22;198;48.752;9.180;2024-01-06T12:46:34;8.20;99.90
423;DHT22;198;48.752;9.180;2024-01-06T12:49:00;8.20;99.90
423;DHT22;198;48.752;9.180;2024-01-06T12:51:26;8.10;99.90
423;DHT22;198;48.752;9.180;2024-01-06T12:53:51;8.00;99.90
423;DHT22;198;48.752;9.180;2024-01-06T12:56:17;8.00;99.90
423;DHT22;198;48.752;9.180;2024-01-06T12:58:43;8.00;99.90
423;DHT22;198;48.752;9.180;2024-01-06T13:01:09;7.90;99.90
423;DHT22;198;48.752;9.180;2024-01-06T13:03:35;7.90;99.90
423;DHT22;198;48.752;9.180;2024-01-06T13:06:01;8.00;99.90
423;DHT22;198;48.752;9.180;2024-01-06T13:08:27;8.00;99.90
423;DHT22;198;48.752;9.180;2024-01-06T13:10:53;8.00;99.90
423;DHT22;198;48.752;9.180;2024-01-06T13:13:19;8.00;99.90
423;DHT22;198;48.752;9.180;2024-01-06T13:15:45;8.00;99.90
423;DHT22;198;48.752;9.180;2024-01-06T13:18:12;8.00;99.90
423;DHT22;198;48.752;9.180;2024-01-06T13:20:38;8.00;99.90
423;DHT22;198;48.752;9.180;2024-01-06T13:23:06;7.90;99.90
423;DHT22;198;48.752;9.180;2024-01-06T13:25:32;7.90;99.90
423;DHT22;198;48.752;9.180;2024-01-06T13:27:58;7.90;99.90
423;DHT22;198;48.752;9.180;2024-01-06T13:30:23;7.80;99.90
423;DHT22;198;48.752;9.180;2024-01-06T13:32:51;7.80;99.90
423;DHT22;198;48.752;9.180;2024-01-06T13:35:19;7.70;99.90
423;DHT22;198;48.752;9.180;2024-01-06T13:37:45;7.70;99.90
423;DHT22;198;48.752;9.180;2024-01-06T13:40:13;7.70;99.90
423;DHT22;198;48.752;9.180;2024-01-06T13:42:39;7.70;99.90
423;DHT22;198;48.752;9.180;2024-01-06T13:45:05;7.70;99.90
423;DHT22;198;48.752;9.180;2024-01-06T13:47:31;7.70;99.90
423;DHT22;198;48.752;9.180;2024-01-06T13:49:56;7.60;99.90
423;DHT22;198;48.752;9.180;2024-01-06T13:52:22;7.60;99.90
423;DHT22;198;48.752;9.180;2024-01-06T13:54:48;7.60;99.90
423;DHT22;198;48.752;9.180;2024-01-06T13:57:13;7.60;99.90
423;DHT22;198;48.752;9.180;2024-01-06T13:59:39;7.60;99.90
423;DHT22;198;48.752;9.180;2024-01-06T14:02:08;7.50;99.90
423;DHT22;198;48.752;9.180;2024-01-06T14:04:35;7.50;99.90
423;DHT22;198;48.752;9.180;2024-01-06T14:07:01;7.40;99.90
423;DHT22;198;48.752;9.180;2024-01-06T14:09:27;7.40;99.90
423;DHT22;198;48.752;9.180;2024-01-06T14:11:53;7.40;99.90
423;DHT22;198;48.752;9.180;2024-01-06T14:14:20;7.40;99.90
423;DHT22;198;48.752;9.180;2024-01-06T14:16:45;7.40;99.90
423;DHT22;198;48.752;9.180;2024-01-06T14:19:12;7.40;99.90
423;DHT22;198;48.752;9.180;2024-01-06T14:21:38;7.40;99.90
423;DHT22;198;48.752;9.180;2024-01-06T14:24:04;7.40;99.90
423;DHT22;198;48.752;9.180;2024-01-06T14:26:31;7.40;99.90
423;DHT22;198;48.752;9.180;2024-01-06T14:28:57;7.40;99.90
423;DHT22;198;48.752;9.180;2024-01-06T14:31:24;7.40;99.90
423;DHT22;198;48.752;9.180;2024-01-06T14:33:50;7.40;99.90
423;DHT22;198;48.752;9.180;2024-01-06T14:36:15;7.30;99.90
423;DHT22;198;48.752;9.180;2024-01-06T14:38:41;7.30;99.90
423;DHT22;198;48.752;9.180;2024-01-06T14:41:06;7.30;99.90
423;DHT22;198;48.752;9.180;2024-01-06T14:43:32;7.30;99.90
423;DHT22;198;48.752;9.180;2024-01-06T14:45:58;7.20;99.90
423;DHT22;198;48.752;9.180;2024-01-06T14:48:23;7.30;99.90
423;DHT22;198;48.752;9.180;2024-01-06T14:50:49;7.30;99.90
423;DHT22;198;48.752;9.180;2024-01-06T14:53:15;7.30;99.90
423;DHT22;198;48.752;9.180;2024-01-06T14:55:41;7.30;99.90
423;DHT22;198;48.752;9.180;2024-01-06T14:58:07;7.30;99.90
423;DHT22;198;48.752;9.180;2024-01-06T15:00:34;7.20;99.90
423;DHT22;198;48.752;9.180;2024-01-06T15:03:00;7.20;99.90
423;DHT22;198;48.752;9.180;2024-01-06T15:05:25;7.20;99.90
423;DHT22;198;48.752;9.180;2024-01-06T15:07:54;7.10;99.90
423;DHT22;198;48.752;9.180;2024-01-06T15:10:19;7.20;99.90
423;DHT22;198;48.752;9.180;2024-01-06T15:12:45;7.10;99.90
423;DHT22;198;48.752;9.180;2024-01-06T15:15:10;7.10;99.90
423;DHT22;198;48.752;9.180;2024-01-06T15:17:36;7.10;99.90
423;DHT22;198;48.752;9.180;2024-01-06T15:20:03;7.10;99.90
423;DHT22;198;48.752;9.180;2024-01-06T15:22:29;7.10;99.90
423;DHT22;198;48.752;9.180;2024-01-06T15:24:54;7.10;99.90
423;DHT22;198;48.752;9.180;2024-01-06T15:27:20;7.10;99.90
423;DHT22;198;48.752;9.180;2024-01-06T15:29:45;7.10;99.90
423;DHT22;198;48.752;9.180;2024-01-06T15:32:11;7.00;99.90
423;DHT22;198;48.752;9.180;2024-01-06T15:34:36;7.10;99.90
423;DHT22;198;48.752;9.180;2024-01-06T15:37:02;7.10;99.90
423;DHT22;198;48.752;9.180;2024-01-06T15:39:27;7.10;99.90
423;DHT22;198;48.752;9.180;2024-01-06T15:41:53;7.10;99.90
423;DHT22;198;48.752;9.180;2024-01-06T15:44:18;7.10;99.90
423;DHT22;198;48.752;9.180;2024-01-06T15:46:44;7.10;99.90
423;DHT22;198;48.752;9.180;2024-01-06T15:49:09;7.10;99.90
423;DHT22;198;48.752;9.180;2024-01-06T15:51:35;7.10;99.90
423;DHT22;198;48.752;9.180;2024-01-06T15:54:00;7.00;99.90
423;DHT22;198;48.752;9.180;2024-01-06T15:56:26;7.00;99.90
423;DHT22;198;48.752;9.180;2024-01-06T15:58:52;7.00;99.90
423;DHT22;198;48.752;9.180;2024-01-06T16:01:20;7.00;99.90
423;DHT22;198;48.752;9.180;2024-01-06T16:03:45;7.00;99.90
423;DHT22;198;48.752;9.180;2024-01-06T16:06:11;7.00;99.90
423;DHT22;198;48.752;9.180;2024-01-06T16:08:37;7.00;99.90
423;DHT22;198;48.752;9.180;2024-01-06T16:11:02;7.00;99.90
423;DHT22;198;48.752;9.180;2024-01-06T16:13:28;7.00;99.90
423;DHT22;198;48.752;9.180;2024-01-06T16:15:54;6.90;99.90
423;DHT22;198;48.752;9.180;2024-01-06T16:18:20;6.90;99.90
423;DHT22;198;48.752;9.180;2024-01-06T16:20:46;6.90;99.90
423;DHT22;198;48.752;9.180;2024-01-06T16:23:12;6.90;99.90
423;DHT22;198;48.752;9.180;2024-01-06T16:25:41;6.80;99.90
423;DHT22;198;48.752;9.180;2024-01-06T16:28:06;6.90;99.90
423;DHT22;198;48.752;9.180;2024-01-06T16:30:39;6.80;99.90
423;DHT22;198;48.752;9.180;2024-01-06T16:33:05;6.80;99.90
423;DHT22;198;48.752;9.180;2024-01-06T16:35:32;6.80;99.90
423;DHT22;198;48.752;9.180;2024-01-06T16:37:58;6.80;99.90
423;DHT22;198;48.752;9.180;2024-01-06T16:40:24;6.80;99.90
423;DHT22;198;48.752;9.180;2024-01-06T16:42:49;6.80;99.90
423;DHT22;198;48.752;9.180;2024-01-06T16:45:17;6.80;99.90
423;DHT22;198;48.752;9.180;2024-01-06T16:47:43;6.80;99.90
423;DHT22;198;48.752;9.180;2024-01-06T16:50:09;6.90;99.90